TOURFACTS.DK  
Stats and Facts from Tour de France.

Tour de France 2019 starts in 348 days
  Riders   Stages   Teams   Summits   Yearly  


 
Search by year

After 2018 - Stage 14:
 15000 starters.
  5163 different riders.
  639 teams.
  2246 stages.
  456 restdays.
  441957.60 km.
  5678 abandonnees.


Top 3
GC
Christopher Froome86:20:55
Rigoberto Urán86:21:49
Romain Bardet86:23:15
Climb
Warren Barguil169 pt.
Primoz Roglic80 pt.
Thomas De Gendt64 pt.
Sprint
Michael Matthews359 pt.
André Greipel234 pt.
Edvald Boasson Hagen220 pt.
Youth
Simon Yates86:27:09
Louis Meintjes86:29:15
Emanuel Buchmann86:54:16
Facts from Tour de France 1935
  |   Stages.  |   Stage winners.  |   Days in yellow  |   Average speed.  |   Route.  |   Teams.  |   All riders.  |   Rookies.  |  

  |   Withdrawls.  |   GC.  |   Polka  |   Green  |   White  |   Summits. (In tour)  |   Miscellaneous.  |  

Stage 3 on July 6th. 1935
         Owning:    Romain Maes    
Pick a stage:  1 2 3 4 5a 5b 6 7 8 9 10 11 12 13a 13b 14a 14b 15 16 17 18a 18b 19a 19b 20a 20b 21
From: Charleville    To: MetzDist:161.00 km.

Average speed for all riders in stage:  35,263 km./hr.
    Place:Name:Team:Time:Km/h:
ITARafaële Di PacoITAItaly04:29:07  +  00:00:00=35,895 
FRAGustave DanneelsBELBelgium04:29:07  +  00:00:00=35,895 
FRAMaurice ArchambaudFRAFrance04:29:07  +  00:00:00=35,895 
4 BELJean AertsBELBelgium04:30:41  +  00:01:34=35,687 
5 ITAAmbrogio MorelliITACadetti Italiens04:30:41  +  00:01:34=35,687 
6 FRARené Le GrevesFRAFrance04:30:41  +  00:01:34=35,687 
7 GERAnton HodeyDEUGermany04:30:41  +  00:01:34=35,687 
8 GEREmil KijewskiDEUGermany04:30:41  +  00:01:34=35,687 
9 BELFrançois NeuvilleBELBelgium B04:30:41  +  00:01:34=35,687 
10 BELEdgard De CaluweBELBelgium04:30:41  +  00:01:34=35,687 
11 FRARené ViettoFRAFrance04:30:41  +  00:01:34=35,687 
12 FRAAntonin MagneFRAFrance04:30:41  +  00:01:34=35,687 
13 FRARené DebenneFRAFrance04:30:41  +  00:01:34=35,687 
14 BELSylvère MaesBELBelgium B04:30:41  +  00:01:34=35,687 
15 BELJules LowieBELBelgium B04:30:41  +  00:01:34=35,687 
16 ITAEugenio GestriITACadetti Italiens04:30:41  +  00:01:34=35,687 
17 GERGeorg StachDEUGermany B04:30:41  +  00:01:34=35,687 
18 FRAPierre-Marie CloarecTouristes Routiers04:30:41  +  00:01:34=35,687 
19 FRARené BernardTouristes Routiers04:30:41  +  00:01:34=35,687 
20 FRAPierre CoganTouristes Routiers04:30:41  +  00:01:34=35,687 
21 FRAJoseph MauclairTouristes Routiers04:30:41  +  00:01:34=35,687 
22 FRACharles BertyTouristes Routiers04:30:41  +  00:01:34=35,687 
23 FRAHonore GranierTouristes Routiers04:30:41  +  00:01:34=35,687 
24 ITARené-Paul CoralliniTouristes Routiers04:30:41  +  00:01:34=35,687 
25 SUIKurt StettlerCHESwitzerland04:30:41  +  00:01:34=35,687 
26 SUIFritz HartmannCHESwitzerland04:30:41  +  00:01:34=35,687 
27 FRACharles PelissierFRAFrance B04:30:41  +  00:01:34=35,687 
28 FRAGeorges SpeicherFRAFrance04:30:41  +  00:01:34=35,687 
29 FRAAndré LeducqFRAFrance04:30:41  +  00:01:34=35,687 
30 GERKurt StöpelDEUGermany04:30:41  +  00:01:34=35,687 
31 ITAFrancesco CamussoITAItaly04:30:41  +  00:01:34=35,687 
32 ITARemo BertoniITAItaly04:30:41  +  00:01:34=35,687 
33 BELFélicien VervaeckeBELBelgium04:30:41  +  00:01:34=35,687 
34 BELRomain MaesBELBelgium04:30:41  +  00:01:34=35,687 
35 GERGeorg UmbenhauerDEUGermany04:30:41  +  00:01:34=35,687 
36 BELLouis HardiquestBELBelgium04:30:41  +  00:01:34=35,687 
37 ITADante GianelloTouristes Routiers04:30:41  +  00:01:34=35,687 
38 FRAJules MervielFRAFrance04:32:01  +  00:02:54=35,513 
39 ITAPietro RimoldiITACadetti Italiens04:32:01  +  00:02:54=35,513 
40 GEROskar ThierbachDEUGermany04:32:01  +  00:02:54=35,513 
41 ESPAntonio PriorESPSpain04:32:01  +  00:02:54=35,513 
42 FRAGeorges HubatzTouristes Routiers04:32:22  +  00:03:15=35,467 
43 FRAJean FontenayFRAFrance B04:32:22  +  00:03:15=35,467 
44 FRAJulien MoineauFRAFrance B04:32:22  +  00:03:15=35,467 
45 FRARoger LapebieFRAFrance B04:32:22  +  00:03:15=35,467 
46 FRAGabriel RuozziTouristes Routiers04:32:22  +  00:03:15=35,467 
47 ITAAdriano VignoliITAItaly04:32:22  +  00:03:15=35,467 
48 FRALouis ThiétardTouristes Routiers04:32:22  +  00:03:15=35,467 
49 BELHenri GarnierBELBelgium04:32:22  +  00:03:15=35,467 
50 FRAClément BistagneTouristes Routiers04:32:22  +  00:03:15=35,467 
51 ITAVasco BergamaschiITAItaly04:32:22  +  00:03:15=35,467 
52 GERGeorge HaendelDEUGermany B04:32:22  +  00:03:15=35,467 
53 BELAntoine DignefBELBelgium B04:32:22  +  00:03:15=35,467 
54 GEROtto WeckerlingDEUGermany04:32:22  +  00:03:15=35,467 
55 SUILéo AmbergCHESwitzerland04:32:56  +  00:03:49=35,393 
56 FRARobert RenonceTouristes Routiers04:34:53  +  00:05:46=35,142 
57 ESPFederico EzquerraESPSpain04:34:53  +  00:05:46=35,142 
58 FRAFernand FayolleTouristes Routiers04:34:53  +  00:05:46=35,142 
59 ESPEmiliano AlvarezESPSpain04:34:53  +  00:05:46=35,142 
60 ITAOrlando TeaniITACadetti Italiens04:35:12  +  00:06:05=35,102 
61 FRAGeorges LachatTouristes Routiers04:37:19  +  00:08:12=34,834 
62 ESPVicente TruebaESPSpain04:37:19  +  00:08:12=34,834 
63 FRABenoit FaureTouristes Routiers04:37:19  +  00:08:12=34,834 
64 GERFerdinand IckesDEUGermany B04:37:19  +  00:08:12=34,834 
65 ESPFrancisco CepedaESPSpain B04:37:19  +  00:08:12=34,834 
66 GERKarl HeideDEUGermany04:37:55  +  00:08:48=34,759 
67 ESPManuel GarciaTouristes Routiers04:37:55  +  00:08:48=34,759 
68 FRAPaul ChocqueTouristes Routiers04:37:55  +  00:08:48=34,759 
69 FRAMaurice PomarèdeTouristes Routiers04:37:55  +  00:08:48=34,759 
70 FRAJean PhilipTouristes Routiers04:37:55  +  00:08:48=34,759 
71 ESPThéodore LadronTouristes Routiers04:37:55  +  00:08:48=34,759 
72 ITALuigi GiacobbeITAItaly04:37:55  +  00:08:48=34,759 
73 GERWilly KutschbachDEUGermany04:37:55  +  00:08:48=34,759 
74 ESPSalvador CardonaESPSpain04:37:55  +  00:08:48=34,759 
75 LUXJosy KrausTouristes Routiers04:37:55  +  00:08:48=34,759 
76 ESPVicente BacheroESPSpain B04:37:55  +  00:08:48=34,759 
77 ITAOreste BernardoniTouristes Routiers04:37:55  +  00:08:48=34,759 
78 ESPDemetrio VicenteESPSpain B04:37:55  +  00:08:48=34,759 
79 GERBruno RothDEUGermany B04:41:52  +  00:12:45=34,272 
80 FRASezny Le RouxTouristes Routiers04:45:09  +  00:16:02=33,877 
81 FRAPierre JanvierTouristes Routiers04:46:42  +  00:17:35=33,694 
82 ITAAldo BertoccoTouristes Routiers04:46:42  +  00:17:35=33,694 
83 ESPMariano CañardoESPSpain04:51:55  +  00:22:48=33,092 
84 ESPIsidro FiguerasESPSpain04:51:55  +  00:22:48=33,092 

Withdrawls: 1
 
Rider
Team
Reason
120  FRALouis HalbourgTouristes RoutiersDid not finish

Todays birthdays.

1877  Antoine Perrichon
1878  Auguste Berthault
1911  Théo Herckenrath
1924  Carlo Lafranchi
1931  Armand Di Caro
1937  Jean-Claude Lebaube
1951  Giovanni Battaglin
1961  Pascal Jules
1962  Jean-Claude Leclercq
1976  Janek Tombak
1978  Francisco Pérez
1983  Dries Devenyns




Visits: